sensor_id;sensor_type;location;lat;lon;timestamp;P1;durP1;ratioP1;P2;durP2;ratioP2
68944;SDS011;55984;48.790;8.990;2022-12-18T00:01:03;134.43;;;37.78;;
68944;SDS011;55984;48.790;8.990;2022-12-18T00:03:34;140.20;;;39.38;;
68944;SDS011;55984;48.790;8.990;2022-12-18T00:06:00;143.25;;;38.25;;
68944;SDS011;55984;48.790;8.990;2022-12-18T00:08:26;124.88;;;36.22;;
68944;SDS011;55984;48.790;8.990;2022-12-18T00:10:53;125.15;;;36.30;;
68944;SDS011;55984;48.790;8.990;2022-12-18T00:13:19;119.65;;;34.85;;
68944;SDS011;55984;48.790;8.990;2022-12-18T00:15:44;131.40;;;36.53;;
68944;SDS011;55984;48.790;8.990;2022-12-18T00:18:10;127.43;;;35.60;;
68944;SDS011;55984;48.790;8.990;2022-12-18T00:20:39;128.20;;;34.83;;
68944;SDS011;55984;48.790;8.990;2022-12-18T00:23:05;149.40;;;35.88;;
68944;SDS011;55984;48.790;8.990;2022-12-18T00:25:33;125.57;;;38.38;;
68944;SDS011;55984;48.790;8.990;2022-12-18T00:28:00;135.95;;;37.78;;
68944;SDS011;55984;48.790;8.990;2022-12-18T00:30:26;123.88;;;34.92;;
68944;SDS011;55984;48.790;8.990;2022-12-18T00:32:51;137.00;;;37.20;;
68944;SDS011;55984;48.790;8.990;2022-12-18T00:35:17;134.03;;;37.17;;
68944;SDS011;55984;48.790;8.990;2022-12-18T00:37:48;150.27;;;37.97;;
68944;SDS011;55984;48.790;8.990;2022-12-18T00:40:14;147.80;;;40.10;;
68944;SDS011;55984;48.790;8.990;2022-12-18T00:42:39;139.93;;;38.97;;
68944;SDS011;55984;48.790;8.990;2022-12-18T00:45:24;139.32;;;38.67;;
68944;SDS011;55984;48.790;8.990;2022-12-18T00:47:54;136.43;;;39.58;;
68944;SDS011;55984;48.790;8.990;2022-12-18T00:50:20;140.05;;;37.90;;
68944;SDS011;55984;48.790;8.990;2022-12-18T00:52:46;148.70;;;39.85;;
68944;SDS011;55984;48.790;8.990;2022-12-18T00:55:12;126.73;;;38.00;;
68944;SDS011;55984;48.790;8.990;2022-12-18T00:57:40;124.90;;;35.88;;
68944;SDS011;55984;48.790;8.990;2022-12-18T01:00:06;139.23;;;39.00;;
68944;SDS011;55984;48.790;8.990;2022-12-18T01:02:37;131.95;;;37.05;;
68944;SDS011;55984;48.790;8.990;2022-12-18T01:05:04;134.40;;;38.10;;
68944;SDS011;55984;48.790;8.990;2022-12-18T01:07:30;129.02;;;38.22;;
68944;SDS011;55984;48.790;8.990;2022-12-18T01:09:55;143.97;;;37.63;;
68944;SDS011;55984;48.790;8.990;2022-12-18T01:12:21;127.80;;;37.53;;
68944;SDS011;55984;48.790;8.990;2022-12-18T01:14:50;129.03;;;34.67;;
68944;SDS011;55984;48.790;8.990;2022-12-18T01:17:16;129.60;;;39.15;;
68944;SDS011;55984;48.790;8.990;2022-12-18T01:19:41;132.30;;;37.50;;
68944;SDS011;55984;48.790;8.990;2022-12-18T01:22:06;122.17;;;35.10;;
68944;SDS011;55984;48.790;8.990;2022-12-18T01:24:32;137.93;;;36.90;;
68944;SDS011;55984;48.790;8.990;2022-12-18T01:26:57;123.23;;;36.73;;
68944;SDS011;55984;48.790;8.990;2022-12-18T01:29:23;118.33;;;35.63;;
68944;SDS011;55984;48.790;8.990;2022-12-18T01:31:48;117.93;;;33.17;;
68944;SDS011;55984;48.790;8.990;2022-12-18T01:34:15;129.77;;;35.10;;
68944;SDS011;55984;48.790;8.990;2022-12-18T01:36:40;120.20;;;35.20;;
68944;SDS011;55984;48.790;8.990;2022-12-18T01:39:07;121.33;;;33.70;;
68944;SDS011;55984;48.790;8.990;2022-12-18T01:41:36;122.15;;;34.95;;
68944;SDS011;55984;48.790;8.990;2022-12-18T01:50:25;131.27;;;34.47;;
68944;SDS011;55984;48.790;8.990;2022-12-18T01:52:58;125.63;;;35.58;;
68944;SDS011;55984;48.790;8.990;2022-12-18T01:55:28;121.15;;;34.53;;
68944;SDS011;55984;48.790;8.990;2022-12-18T01:57:58;125.25;;;35.15;;
68944;SDS011;55984;48.790;8.990;2022-12-18T02:00:25;116.72;;;31.85;;
68944;SDS011;55984;48.790;8.990;2022-12-18T02:12:03;127.55;;;34.08;;
68944;SDS011;55984;48.790;8.990;2022-12-18T02:17:03;126.30;;;37.70;;
68944;SDS011;55984;48.790;8.990;2022-12-18T02:22:25;122.43;;;35.42;;
68944;SDS011;55984;48.790;8.990;2022-12-18T02:25:01;111.57;;;32.70;;
68944;SDS011;55984;48.790;8.990;2022-12-18T02:27:40;110.00;;;31.63;;
68944;SDS011;55984;48.790;8.990;2022-12-18T02:30:10;102.70;;;31.30;;
68944;SDS011;55984;48.790;8.990;2022-12-18T02:32:43;117.65;;;34.97;;
68944;SDS011;55984;48.790;8.990;2022-12-18T02:35:15;122.82;;;33.53;;
68944;SDS011;55984;48.790;8.990;2022-12-18T02:37:45;118.97;;;33.60;;
68944;SDS011;55984;48.790;8.990;2022-12-18T02:40:12;120.22;;;35.92;;
68944;SDS011;55984;48.790;8.990;2022-12-18T02:42:39;131.05;;;36.05;;
68944;SDS011;55984;48.790;8.990;2022-12-18T02:45:04;122.30;;;36.20;;
68944;SDS011;55984;48.790;8.990;2022-12-18T02:47:31;120.77;;;32.30;;
68944;SDS011;55984;48.790;8.990;2022-12-18T03:04:19;109.43;;;31.27;;
68944;SDS011;55984;48.790;8.990;2022-12-18T03:06:53;131.10;;;35.22;;
68944;SDS011;55984;48.790;8.990;2022-12-18T03:09:31;110.93;;;31.70;;
68944;SDS011;55984;48.790;8.990;2022-12-18T03:12:06;97.60;;;31.00;;
68944;SDS011;55984;48.790;8.990;2022-12-18T03:14:59;105.32;;;30.95;;
68944;SDS011;55984;48.790;8.990;2022-12-18T03:17:30;99.68;;;30.33;;
68944;SDS011;55984;48.790;8.990;2022-12-18T03:19:58;107.75;;;31.35;;
68944;SDS011;55984;48.790;8.990;2022-12-18T03:22:33;135.25;;;35.80;;
68944;SDS011;55984;48.790;8.990;2022-12-18T03:25:00;114.10;;;35.08;;
68944;SDS011;55984;48.790;8.990;2022-12-18T03:27:29;124.28;;;35.67;;
68944;SDS011;55984;48.790;8.990;2022-12-18T03:30:03;130.77;;;36.40;;
68944;SDS011;55984;48.790;8.990;2022-12-18T03:32:43;146.77;;;35.67;;
68944;SDS011;55984;48.790;8.990;2022-12-18T03:35:14;130.40;;;35.00;;
68944;SDS011;55984;48.790;8.990;2022-12-18T03:37:44;117.68;;;33.78;;
68944;SDS011;55984;48.790;8.990;2022-12-18T03:40:10;110.97;;;33.37;;
68944;SDS011;55984;48.790;8.990;2022-12-18T03:42:43;120.65;;;33.00;;
68944;SDS011;55984;48.790;8.990;2022-12-18T03:45:19;114.93;;;32.05;;
68944;SDS011;55984;48.790;8.990;2022-12-18T03:50:42;146.77;;;36.92;;
68944;SDS011;55984;48.790;8.990;2022-12-18T03:56:18;130.38;;;35.15;;
68944;SDS011;55984;48.790;8.990;2022-12-18T03:58:47;104.85;;;33.17;;
68944;SDS011;55984;48.790;8.990;2022-12-18T04:01:15;104.10;;;32.75;;
68944;SDS011;55984;48.790;8.990;2022-12-18T04:03:42;121.13;;;33.70;;
68944;SDS011;55984;48.790;8.990;2022-12-18T04:06:11;121.07;;;35.08;;
68944;SDS011;55984;48.790;8.990;2022-12-18T04:08:38;136.50;;;36.10;;
68944;SDS011;55984;48.790;8.990;2022-12-18T04:11:05;117.97;;;33.50;;
68944;SDS011;55984;48.790;8.990;2022-12-18T04:13:34;119.70;;;32.23;;
68944;SDS011;55984;48.790;8.990;2022-12-18T04:16:01;95.30;;;32.25;;
68944;SDS011;55984;48.790;8.990;2022-12-18T04:18:26;110.63;;;32.20;;
68944;SDS011;55984;48.790;8.990;2022-12-18T04:20:52;113.70;;;32.70;;
68944;SDS011;55984;48.790;8.990;2022-12-18T04:23:18;120.75;;;34.10;;
68944;SDS011;55984;48.790;8.990;2022-12-18T04:25:43;121.67;;;36.57;;
68944;SDS011;55984;48.790;8.990;2022-12-18T04:28:10;111.72;;;33.83;;
68944;SDS011;55984;48.790;8.990;2022-12-18T04:30:35;124.83;;;34.30;;
68944;SDS011;55984;48.790;8.990;2022-12-18T04:33:00;109.40;;;34.27;;
68944;SDS011;55984;48.790;8.990;2022-12-18T04:35:28;104.63;;;32.20;;
68944;SDS011;55984;48.790;8.990;2022-12-18T04:37:54;123.32;;;34.83;;
68944;SDS011;55984;48.790;8.990;2022-12-18T04:40:19;119.57;;;33.60;;
68944;SDS011;55984;48.790;8.990;2022-12-18T04:42:44;98.70;;;31.70;;
68944;SDS011;55984;48.790;8.990;2022-12-18T04:45:10;104.10;;;31.80;;
68944;SDS011;55984;48.790;8.990;2022-12-18T04:47:35;109.33;;;32.90;;
68944;SDS011;55984;48.790;8.990;2022-12-18T04:50:00;118.03;;;33.63;;
68944;SDS011;55984;48.790;8.990;2022-12-18T04:52:26;117.30;;;33.20;;
68944;SDS011;55984;48.790;8.990;2022-12-18T04:54:51;125.97;;;33.87;;
68944;SDS011;55984;48.790;8.990;2022-12-18T04:57:16;146.03;;;38.27;;
68944;SDS011;55984;48.790;8.990;2022-12-18T04:59:43;139.30;;;38.08;;
68944;SDS011;55984;48.790;8.990;2022-12-18T05:02:08;119.40;;;35.47;;
68944;SDS011;55984;48.790;8.990;2022-12-18T05:04:34;113.60;;;34.30;;
68944;SDS011;55984;48.790;8.990;2022-12-18T05:06:59;110.80;;;31.13;;
68944;SDS011;55984;48.790;8.990;2022-12-18T05:09:24;109.07;;;31.80;;
68944;SDS011;55984;48.790;8.990;2022-12-18T05:11:50;113.73;;;30.20;;
68944;SDS011;55984;48.790;8.990;2022-12-18T05:14:15;111.63;;;28.00;;
68944;SDS011;55984;48.790;8.990;2022-12-18T05:16:41;102.40;;;28.47;;
68944;SDS011;55984;48.790;8.990;2022-12-18T05:19:06;91.87;;;28.33;;
68944;SDS011;55984;48.790;8.990;2022-12-18T05:21:31;101.23;;;28.20;;
68944;SDS011;55984;48.790;8.990;2022-12-18T05:23:57;105.00;;;26.57;;
68944;SDS011;55984;48.790;8.990;2022-12-18T05:26:22;90.23;;;27.30;;
68944;SDS011;55984;48.790;8.990;2022-12-18T05:28:48;107.07;;;28.87;;
68944;SDS011;55984;48.790;8.990;2022-12-18T05:31:13;97.07;;;25.63;;
68944;SDS011;55984;48.790;8.990;2022-12-18T05:33:39;93.83;;;27.23;;
68944;SDS011;55984;48.790;8.990;2022-12-18T05:36:05;102.50;;;25.40;;
68944;SDS011;55984;48.790;8.990;2022-12-18T05:38:33;104.82;;;27.52;;
68944;SDS011;55984;48.790;8.990;2022-12-18T05:41:00;101.22;;;28.50;;
68944;SDS011;55984;48.790;8.990;2022-12-18T05:43:26;113.90;;;26.80;;
68944;SDS011;55984;48.790;8.990;2022-12-18T05:45:52;110.83;;;27.67;;
68944;SDS011;55984;48.790;8.990;2022-12-18T05:48:18;104.90;;;27.33;;
68944;SDS011;55984;48.790;8.990;2022-12-18T05:50:45;106.03;;;27.85;;
68944;SDS011;55984;48.790;8.990;2022-12-18T05:53:13;101.72;;;27.08;;
68944;SDS011;55984;48.790;8.990;2022-12-18T05:55:40;112.72;;;26.45;;
68944;SDS011;55984;48.790;8.990;2022-12-18T05:58:07;109.60;;;28.90;;
68944;SDS011;55984;48.790;8.990;2022-12-18T06:00:35;102.40;;;27.35;;
68944;SDS011;55984;48.790;8.990;2022-12-18T06:03:05;110.28;;;28.10;;
68944;SDS011;55984;48.790;8.990;2022-12-18T06:05:35;104.22;;;25.88;;
68944;SDS011;55984;48.790;8.990;2022-12-18T06:08:02;99.72;;;26.70;;
68944;SDS011;55984;48.790;8.990;2022-12-18T06:10:27;100.80;;;27.20;;
68944;SDS011;55984;48.790;8.990;2022-12-18T06:12:53;97.47;;;25.50;;
68944;SDS011;55984;48.790;8.990;2022-12-18T06:15:20;100.13;;;27.52;;
68944;SDS011;55984;48.790;8.990;2022-12-18T06:17:46;117.93;;;31.30;;
68944;SDS011;55984;48.790;8.990;2022-12-18T06:20:18;108.28;;;30.88;;
68944;SDS011;55984;48.790;8.990;2022-12-18T06:22:48;116.82;;;30.90;;
68944;SDS011;55984;48.790;8.990;2022-12-18T06:25:15;111.60;;;28.43;;
68944;SDS011;55984;48.790;8.990;2022-12-18T06:27:47;127.45;;;34.65;;
68944;SDS011;55984;48.790;8.990;2022-12-18T06:30:14;113.78;;;32.78;;
68944;SDS011;55984;48.790;8.990;2022-12-18T06:32:40;126.72;;;37.53;;
68944;SDS011;55984;48.790;8.990;2022-12-18T06:35:05;116.60;;;34.33;;
68944;SDS011;55984;48.790;8.990;2022-12-18T06:37:31;124.63;;;34.27;;
68944;SDS011;55984;48.790;8.990;2022-12-18T06:39:56;131.87;;;33.80;;
68944;SDS011;55984;48.790;8.990;2022-12-18T06:42:22;129.50;;;36.03;;
68944;SDS011;55984;48.790;8.990;2022-12-18T06:44:49;125.35;;;34.72;;
68944;SDS011;55984;48.790;8.990;2022-12-18T06:47:15;122.53;;;34.30;;
68944;SDS011;55984;48.790;8.990;2022-12-18T06:49:41;129.33;;;34.23;;
68944;SDS011;55984;48.790;8.990;2022-12-18T06:52:06;101.80;;;30.70;;
68944;SDS011;55984;48.790;8.990;2022-12-18T06:54:31;98.93;;;31.10;;
68944;SDS011;55984;48.790;8.990;2022-12-18T06:56:57;91.77;;;29.27;;
68944;SDS011;55984;48.790;8.990;2022-12-18T06:59:22;89.27;;;26.90;;
68944;SDS011;55984;48.790;8.990;2022-12-18T07:01:51;96.23;;;28.80;;
68944;SDS011;55984;48.790;8.990;2022-12-18T07:04:17;91.82;;;27.95;;
68944;SDS011;55984;48.790;8.990;2022-12-18T07:06:43;94.00;;;29.37;;
68944;SDS011;55984;48.790;8.990;2022-12-18T07:09:08;90.27;;;27.53;;
68944;SDS011;55984;48.790;8.990;2022-12-18T07:11:33;111.83;;;31.30;;
68944;SDS011;55984;48.790;8.990;2022-12-18T07:13:59;90.97;;;28.13;;
68944;SDS011;55984;48.790;8.990;2022-12-18T07:16:25;106.07;;;28.10;;
68944;SDS011;55984;48.790;8.990;2022-12-18T07:18:50;94.70;;;27.98;;
68944;SDS011;55984;48.790;8.990;2022-12-18T07:21:19;85.50;;;27.30;;
68944;SDS011;55984;48.790;8.990;2022-12-18T07:23:45;94.30;;;28.98;;
68944;SDS011;55984;48.790;8.990;2022-12-18T07:26:15;91.90;;;28.92;;
68944;SDS011;55984;48.790;8.990;2022-12-18T07:28:43;83.88;;;26.95;;
68944;SDS011;55984;48.790;8.990;2022-12-18T07:31:12;91.90;;;27.50;;
68944;SDS011;55984;48.790;8.990;2022-12-18T07:33:39;85.35;;;26.02;;
68944;SDS011;55984;48.790;8.990;2022-12-18T07:36:07;97.80;;;29.27;;
68944;SDS011;55984;48.790;8.990;2022-12-18T07:38:33;90.18;;;27.42;;
68944;SDS011;55984;48.790;8.990;2022-12-18T07:41:08;87.80;;;26.70;;
68944;SDS011;55984;48.790;8.990;2022-12-18T07:43:36;93.10;;;27.30;;
68944;SDS011;55984;48.790;8.990;2022-12-18T07:46:04;93.30;;;26.92;;
68944;SDS011;55984;48.790;8.990;2022-12-18T07:48:31;82.72;;;25.40;;
68944;SDS011;55984;48.790;8.990;2022-12-18T07:51:00;89.60;;;27.83;;
68944;SDS011;55984;48.790;8.990;2022-12-18T07:53:26;83.97;;;25.60;;
68944;SDS011;55984;48.790;8.990;2022-12-18T07:55:55;93.83;;;26.10;;
68944;SDS011;55984;48.790;8.990;2022-12-18T07:58:25;89.82;;;25.70;;
68944;SDS011;55984;48.790;8.990;2022-12-18T08:00:53;86.05;;;25.23;;
68944;SDS011;55984;48.790;8.990;2022-12-18T08:03:19;84.40;;;24.58;;
68944;SDS011;55984;48.790;8.990;2022-12-18T08:05:44;89.50;;;26.20;;
68944;SDS011;55984;48.790;8.990;2022-12-18T08:08:10;84.73;;;25.50;;
68944;SDS011;55984;48.790;8.990;2022-12-18T08:10:35;79.67;;;24.60;;
68944;SDS011;55984;48.790;8.990;2022-12-18T08:13:01;90.10;;;25.98;;
68944;SDS011;55984;48.790;8.990;2022-12-18T08:15:27;86.30;;;25.30;;
68944;SDS011;55984;48.790;8.990;2022-12-18T08:17:54;87.87;;;27.30;;
68944;SDS011;55984;48.790;8.990;2022-12-18T08:20:21;81.05;;;25.83;;
68944;SDS011;55984;48.790;8.990;2022-12-18T08:22:49;78.73;;;25.43;;
68944;SDS011;55984;48.790;8.990;2022-12-18T08:25:14;73.60;;;24.65;;
68944;SDS011;55984;48.790;8.990;2022-12-18T08:27:40;76.43;;;24.13;;
68944;SDS011;55984;48.790;8.990;2022-12-18T08:30:05;91.10;;;26.10;;
68944;SDS011;55984;48.790;8.990;2022-12-18T08:32:31;97.85;;;28.88;;
68944;SDS011;55984;48.790;8.990;2022-12-18T08:34:57;96.05;;;27.52;;
68944;SDS011;55984;48.790;8.990;2022-12-18T08:37:23;88.10;;;25.50;;
68944;SDS011;55984;48.790;8.990;2022-12-18T08:39:49;83.47;;;26.13;;
68944;SDS011;55984;48.790;8.990;2022-12-18T08:42:14;81.87;;;25.00;;
68944;SDS011;55984;48.790;8.990;2022-12-18T08:44:58;87.20;;;26.80;;
68944;SDS011;55984;48.790;8.990;2022-12-18T08:47:23;84.70;;;25.53;;
68944;SDS011;55984;48.790;8.990;2022-12-18T08:49:50;78.43;;;25.23;;
68944;SDS011;55984;48.790;8.990;2022-12-18T08:52:16;86.60;;;26.50;;
68944;SDS011;55984;48.790;8.990;2022-12-18T08:54:41;97.97;;;27.77;;
68944;SDS011;55984;48.790;8.990;2022-12-18T08:57:07;90.80;;;27.67;;
68944;SDS011;55984;48.790;8.990;2022-12-18T08:59:32;88.40;;;27.43;;
68944;SDS011;55984;48.790;8.990;2022-12-18T09:01:58;98.00;;;28.27;;
68944;SDS011;55984;48.790;8.990;2022-12-18T09:04:23;85.60;;;25.53;;
68944;SDS011;55984;48.790;8.990;2022-12-18T09:06:48;88.90;;;26.10;;
68944;SDS011;55984;48.790;8.990;2022-12-18T09:09:17;90.27;;;26.70;;
68944;SDS011;55984;48.790;8.990;2022-12-18T09:11:42;90.43;;;27.75;;
68944;SDS011;55984;48.790;8.990;2022-12-18T09:14:08;107.93;;;28.67;;
68944;SDS011;55984;48.790;8.990;2022-12-18T09:16:34;114.82;;;31.00;;
68944;SDS011;55984;48.790;8.990;2022-12-18T09:19:00;85.53;;;26.40;;
68944;SDS011;55984;48.790;8.990;2022-12-18T09:21:28;72.57;;;23.23;;
68944;SDS011;55984;48.790;8.990;2022-12-18T09:23:55;66.18;;;22.45;;
68944;SDS011;55984;48.790;8.990;2022-12-18T09:26:22;58.90;;;20.03;;
68944;SDS011;55984;48.790;8.990;2022-12-18T09:28:49;54.10;;;20.03;;
68944;SDS011;55984;48.790;8.990;2022-12-18T09:31:15;45.83;;;17.57;;
68944;SDS011;55984;48.790;8.990;2022-12-18T09:33:42;51.37;;;18.57;;
68944;SDS011;55984;48.790;8.990;2022-12-18T09:36:08;48.23;;;18.63;;
68944;SDS011;55984;48.790;8.990;2022-12-18T09:38:36;47.53;;;17.60;;
68944;SDS011;55984;48.790;8.990;2022-12-18T09:41:13;48.83;;;18.17;;
68944;SDS011;55984;48.790;8.990;2022-12-18T09:44:01;49.47;;;17.70;;
68944;SDS011;55984;48.790;8.990;2022-12-18T09:46:30;45.40;;;18.20;;
68944;SDS011;55984;48.790;8.990;2022-12-18T09:49:05;42.80;;;18.50;;
68944;SDS011;55984;48.790;8.990;2022-12-18T09:51:38;40.67;;;17.03;;
68944;SDS011;55984;48.790;8.990;2022-12-18T09:54:16;39.73;;;17.80;;
68944;SDS011;55984;48.790;8.990;2022-12-18T09:56:46;41.93;;;17.70;;
68944;SDS011;55984;48.790;8.990;2022-12-18T10:01:55;41.83;;;17.90;;
68944;SDS011;55984;48.790;8.990;2022-12-18T10:04:20;38.83;;;17.20;;
68944;SDS011;55984;48.790;8.990;2022-12-18T10:06:52;36.33;;;16.73;;
68944;SDS011;55984;48.790;8.990;2022-12-18T10:09:28;43.90;;;18.00;;
68944;SDS011;55984;48.790;8.990;2022-12-18T10:15:14;37.77;;;17.30;;
68944;SDS011;55984;48.790;8.990;2022-12-18T10:20:28;42.00;;;18.77;;
68944;SDS011;55984;48.790;8.990;2022-12-18T10:23:04;36.90;;;17.27;;
68944;SDS011;55984;48.790;8.990;2022-12-18T10:25:53;37.17;;;17.93;;
68944;SDS011;55984;48.790;8.990;2022-12-18T10:28:24;37.77;;;18.43;;
68944;SDS011;55984;48.790;8.990;2022-12-18T10:30:51;43.70;;;18.53;;
68944;SDS011;55984;48.790;8.990;2022-12-18T10:33:22;40.30;;;19.97;;
68944;SDS011;55984;48.790;8.990;2022-12-18T10:35:52;34.37;;;17.00;;
68944;SDS011;55984;48.790;8.990;2022-12-18T10:41:03;35.17;;;17.50;;
68944;SDS011;55984;48.790;8.990;2022-12-18T10:45:59;38.70;;;18.17;;
68944;SDS011;55984;48.790;8.990;2022-12-18T10:48:28;34.00;;;17.23;;
68944;SDS011;55984;48.790;8.990;2022-12-18T10:50:54;34.03;;;17.33;;
68944;SDS011;55984;48.790;8.990;2022-12-18T10:53:22;33.50;;;17.37;;
68944;SDS011;55984;48.790;8.990;2022-12-18T10:55:53;32.00;;;16.97;;
68944;SDS011;55984;48.790;8.990;2022-12-18T11:03:35;37.63;;;18.90;;
68944;SDS011;55984;48.790;8.990;2022-12-18T11:06:09;35.30;;;17.13;;
68944;SDS011;55984;48.790;8.990;2022-12-18T11:08:40;36.80;;;17.03;;
68944;SDS011;55984;48.790;8.990;2022-12-18T11:11:20;38.23;;;19.90;;
68944;SDS011;55984;48.790;8.990;2022-12-18T11:13:56;35.67;;;16.80;;
68944;SDS011;55984;48.790;8.990;2022-12-18T11:16:27;38.80;;;18.27;;
68944;SDS011;55984;48.790;8.990;2022-12-18T11:19:06;30.97;;;16.10;;
68944;SDS011;55984;48.790;8.990;2022-12-18T11:21:46;37.90;;;18.73;;
68944;SDS011;55984;48.790;8.990;2022-12-18T11:24:18;34.40;;;17.10;;
68944;SDS011;55984;48.790;8.990;2022-12-18T11:26:46;35.70;;;17.80;;
68944;SDS011;55984;48.790;8.990;2022-12-18T11:29:16;33.87;;;17.30;;
68944;SDS011;55984;48.790;8.990;2022-12-18T11:31:43;34.90;;;16.50;;
68944;SDS011;55984;48.790;8.990;2022-12-18T11:36:54;36.00;;;16.20;;
68944;SDS011;55984;48.790;8.990;2022-12-18T11:39:41;35.70;;;17.20;;
68944;SDS011;55984;48.790;8.990;2022-12-18T11:42:12;34.63;;;16.27;;
68944;SDS011;55984;48.790;8.990;2022-12-18T11:44:48;32.80;;;15.90;;
68944;SDS011;55984;48.790;8.990;2022-12-18T11:47:31;38.10;;;17.17;;
68944;SDS011;55984;48.790;8.990;2022-12-18T11:50:23;34.73;;;15.37;;
68944;SDS011;55984;48.790;8.990;2022-12-18T11:52:52;40.80;;;18.17;;
68944;SDS011;55984;48.790;8.990;2022-12-18T11:58:12;35.33;;;16.67;;
68944;SDS011;55984;48.790;8.990;2022-12-18T12:00:51;37.30;;;15.33;;
68944;SDS011;55984;48.790;8.990;2022-12-18T12:06:28;35.70;;;17.10;;
68944;SDS011;55984;48.790;8.990;2022-12-18T12:09:52;39.37;;;16.47;;
68944;SDS011;55984;48.790;8.990;2022-12-18T12:15:13;39.80;;;16.97;;
68944;SDS011;55984;48.790;8.990;2022-12-18T12:17:50;36.07;;;15.43;;
68944;SDS011;55984;48.790;8.990;2022-12-18T12:20:20;39.37;;;16.43;;
68944;SDS011;55984;48.790;8.990;2022-12-18T12:22:59;37.63;;;15.73;;
68944;SDS011;55984;48.790;8.990;2022-12-18T12:25:37;35.20;;;15.10;;
68944;SDS011;55984;48.790;8.990;2022-12-18T12:28:13;36.97;;;14.90;;
68944;SDS011;55984;48.790;8.990;2022-12-18T12:34:05;40.00;;;16.70;;
68944;SDS011;55984;48.790;8.990;2022-12-18T12:39:44;37.17;;;16.10;;
68944;SDS011;55984;48.790;8.990;2022-12-18T12:45:34;41.30;;;17.47;;
68944;SDS011;55984;48.790;8.990;2022-12-18T12:48:05;39.77;;;16.03;;
68944;SDS011;55984;48.790;8.990;2022-12-18T12:50:38;41.47;;;16.60;;
68944;SDS011;55984;48.790;8.990;2022-12-18T12:53:07;41.30;;;16.10;;
68944;SDS011;55984;48.790;8.990;2022-12-18T12:55:34;39.60;;;16.23;;
68944;SDS011;55984;48.790;8.990;2022-12-18T13:06:03;41.30;;;16.83;;
68944;SDS011;55984;48.790;8.990;2022-12-18T13:08:58;37.03;;;15.53;;
68944;SDS011;55984;48.790;8.990;2022-12-18T13:11:29;45.30;;;17.60;;
68944;SDS011;55984;48.790;8.990;2022-12-18T13:14:38;39.87;;;16.83;;
68944;SDS011;55984;48.790;8.990;2022-12-18T13:17:16;41.03;;;17.07;;
68944;SDS011;55984;48.790;8.990;2022-12-18T13:19:50;46.70;;;17.03;;
68944;SDS011;55984;48.790;8.990;2022-12-18T13:22:31;44.20;;;17.37;;
68944;SDS011;55984;48.790;8.990;2022-12-18T13:25:27;40.63;;;16.67;;
68944;SDS011;55984;48.790;8.990;2022-12-18T13:40:58;42.20;;;16.70;;
68944;SDS011;55984;48.790;8.990;2022-12-18T13:43:30;47.80;;;17.70;;
68944;SDS011;55984;48.790;8.990;2022-12-18T13:49:05;46.80;;;17.07;;
68944;SDS011;55984;48.790;8.990;2022-12-18T13:51:39;45.03;;;18.00;;
68944;SDS011;55984;48.790;8.990;2022-12-18T13:57:00;46.10;;;18.03;;
68944;SDS011;55984;48.790;8.990;2022-12-18T13:59:26;52.63;;;17.93;;
68944;SDS011;55984;48.790;8.990;2022-12-18T14:01:59;44.40;;;17.00;;
68944;SDS011;55984;48.790;8.990;2022-12-18T14:04:34;53.13;;;17.50;;
68944;SDS011;55984;48.790;8.990;2022-12-18T14:07:04;45.63;;;17.03;;
68944;SDS011;55984;48.790;8.990;2022-12-18T14:09:41;45.90;;;17.47;;
68944;SDS011;55984;48.790;8.990;2022-12-18T14:12:16;50.80;;;18.07;;
68944;SDS011;55984;48.790;8.990;2022-12-18T14:17:52;46.17;;;18.10;;
68944;SDS011;55984;48.790;8.990;2022-12-18T14:20:19;50.23;;;19.33;;
68944;SDS011;55984;48.790;8.990;2022-12-18T14:22:45;53.70;;;19.67;;
68944;SDS011;55984;48.790;8.990;2022-12-18T14:25:20;57.00;;;20.37;;
68944;SDS011;55984;48.790;8.990;2022-12-18T14:27:50;55.60;;;20.90;;
68944;SDS011;55984;48.790;8.990;2022-12-18T14:30:32;61.67;;;21.60;;
68944;SDS011;55984;48.790;8.990;2022-12-18T14:35:34;53.93;;;20.80;;
68944;SDS011;55984;48.790;8.990;2022-12-18T14:40:47;64.93;;;23.25;;
68944;SDS011;55984;48.790;8.990;2022-12-18T14:43:20;66.15;;;25.20;;
68944;SDS011;55984;48.790;8.990;2022-12-18T14:45:46;74.80;;;26.20;;
68944;SDS011;55984;48.790;8.990;2022-12-18T14:48:18;69.07;;;26.93;;
68944;SDS011;55984;48.790;8.990;2022-12-18T14:50:54;64.40;;;25.02;;
68944;SDS011;55984;48.790;8.990;2022-12-18T14:54:00;80.43;;;27.65;;
68944;SDS011;55984;48.790;8.990;2022-12-18T14:56:35;85.15;;;27.15;;
68944;SDS011;55984;48.790;8.990;2022-12-18T14:59:13;81.50;;;28.33;;
68944;SDS011;55984;48.790;8.990;2022-12-18T15:02:10;74.25;;;25.77;;
68944;SDS011;55984;48.790;8.990;2022-12-18T15:04:40;85.15;;;27.52;;
68944;SDS011;55984;48.790;8.990;2022-12-18T15:09:36;80.35;;;25.65;;
68944;SDS011;55984;48.790;8.990;2022-12-18T15:12:03;78.63;;;25.20;;
68944;SDS011;55984;48.790;8.990;2022-12-18T15:14:31;71.37;;;26.07;;
68944;SDS011;55984;48.790;8.990;2022-12-18T15:17:03;78.53;;;26.00;;
68944;SDS011;55984;48.790;8.990;2022-12-18T15:19:42;80.35;;;25.67;;
68944;SDS011;55984;48.790;8.990;2022-12-18T15:25:20;74.60;;;24.92;;
68944;SDS011;55984;48.790;8.990;2022-12-18T15:27:49;82.57;;;26.98;;
68944;SDS011;55984;48.790;8.990;2022-12-18T15:32:42;90.40;;;28.47;;
68944;SDS011;55984;48.790;8.990;2022-12-18T15:37:34;82.37;;;28.10;;
68944;SDS011;55984;48.790;8.990;2022-12-18T15:40:02;85.93;;;27.55;;
68944;SDS011;55984;48.790;8.990;2022-12-18T15:42:30;90.88;;;27.85;;
68944;SDS011;55984;48.790;8.990;2022-12-18T15:45:26;88.53;;;28.25;;
68944;SDS011;55984;48.790;8.990;2022-12-18T15:47:57;91.28;;;29.25;;
68944;SDS011;55984;48.790;8.990;2022-12-18T15:50:24;99.00;;;30.27;;
68944;SDS011;55984;48.790;8.990;2022-12-18T15:52:51;111.70;;;31.42;;
68944;SDS011;55984;48.790;8.990;2022-12-18T15:55:22;90.55;;;27.60;;
68944;SDS011;55984;48.790;8.990;2022-12-18T15:58:21;86.97;;;24.40;;
68944;SDS011;55984;48.790;8.990;2022-12-18T16:03:53;81.00;;;26.30;;
68944;SDS011;55984;48.790;8.990;2022-12-18T16:06:21;102.83;;;26.70;;
68944;SDS011;55984;48.790;8.990;2022-12-18T16:08:47;93.38;;;29.15;;
68944;SDS011;55984;48.790;8.990;2022-12-18T16:11:36;106.88;;;30.00;;
68944;SDS011;55984;48.790;8.990;2022-12-18T16:14:20;97.93;;;27.80;;
68944;SDS011;55984;48.790;8.990;2022-12-18T16:17:02;109.88;;;30.45;;
68944;SDS011;55984;48.790;8.990;2022-12-18T16:19:50;103.35;;;29.90;;
68944;SDS011;55984;48.790;8.990;2022-12-18T16:22:20;95.80;;;28.07;;
68944;SDS011;55984;48.790;8.990;2022-12-18T16:24:55;91.78;;;27.20;;
68944;SDS011;55984;48.790;8.990;2022-12-18T16:27:23;94.85;;;28.20;;
68944;SDS011;55984;48.790;8.990;2022-12-18T16:29:52;92.05;;;27.25;;
68944;SDS011;55984;48.790;8.990;2022-12-18T16:35:25;80.72;;;24.30;;
68944;SDS011;55984;48.790;8.990;2022-12-18T16:41:02;91.93;;;27.33;;
68944;SDS011;55984;48.790;8.990;2022-12-18T16:44:05;86.75;;;28.33;;
68944;SDS011;55984;48.790;8.990;2022-12-18T16:46:34;106.72;;;27.98;;
68944;SDS011;55984;48.790;8.990;2022-12-18T16:48:59;97.77;;;28.53;;